Airfield :
LOGIN :

Register | Disclaimer

   EN    FR    IT 

 










Legend :    VFR   Marginal VFR   IFR   Intensive IFR   Very Intensive IFR
Visi :
Ceiling :
>= 8 km
>= 3000ft
5 to 8 km
1000 to 3000 ft
1500m to 5 km
500 to 1000 ft
800 to 1500m
200 to 500 ft
< 800m
< 200 ft
Symbols :   Thunderstorms  Fog  Heavy snow  Heavy precipitations  Wind > 20 kt
SIGMETs :     Misc.  Thunderstorms  Icing  Turbulence  Mountain Waves  Volcanic Ashes






- Airport Elevation : 294 ft
- IATA code : NAP


LIRN - Naples Capodichino

CURRENT METAR :
  • 251220Z 23009KT 190V260 9999 SCT030 16/11 Q1016 NOSIG

EXPIRED METARs :
  • 251150Z 21008KT 160V240 9999 R06/P1500N R24/1400N SCT030 16/09 Q1016 NOSIG
  • 251120Z 23008KT 190V270 9999 R06/P1500N R24/1400N FEW030 15/09 Q1017 NOSIG
  • 251050Z 22007KT 160V270 9999 R06/P1500N R24/1400N FEW030 15/10 Q1017 NOSIG
  • 251020Z 21009KT 190V250 9999 FEW030 15/09 Q1017 NOSIG
  • 250950Z 23009KT 200V260 9999 FEW030 15/09 Q1018 NOSIG

TAF TAF LIRN
Valid from the 25 at 12:00 until the 26 at 12:00 UTC


251100Z 2512/2612 21012KT 9999 SCT030
TEMPO 2610/2612 RA



MET'MAP, your aeronautical weather chart ! - Copyright ORBIFLY December 2007 - Disclaimer

ORBIFLY MET'MAP TEAM :

Programming & Development : Alexandra Zaïnal
Concept & original design : Baudouin d'Aumeries
Assistance for programming : Marc-Olivier Méhu
Technical & hardware support : Manuel Goepfert

Contact : metmap@orbifly.com




SOURCES & CREDITS :

   NOAA